Time;durP1;ratioP1;P1;durP2;ratioP2;P2;SDS_P1;SDS_P2;PMS_P1;PMS_P2;Temp;Humidity;BMP_temperature;BMP_pressure;BME280_temperature;BME280_humidity;BME280_pressure;Samples;Min_cycle;Max_cycle;Signal;HPM_P1;HPM_P2
2023/09/08 00:00:19;;;;;;;;;;;;;;;16.55;45.10;101198.97;5064290;28;1134;-62
2023/09/08 00:02:45;;;;;;;;;;;;;;;16.55;45.46;101196.25;5064103;28;1906;-62
2023/09/08 00:05:10;;;;;;;;;;;;;;;16.66;45.11;101192.50;5069521;28;1106;-62
2023/09/08 00:07:36;;;;;;;;;;;;;;;17.11;46.81;101184.84;5070545;28;1048;-63
2023/09/08 00:10:01;;;;;;;;;;;;;;;16.83;46.81;101180.50;5064911;28;1094;-62
2023/09/08 00:12:26;;;;;;;;;;;;;;;16.74;46.48;101185.69;5076667;28;1110;-63
2023/09/08 00:14:52;;;;;;;;;;;;;;;16.73;46.00;101184.88;5069811;28;1154;-64
2023/09/08 00:17:17;;;;;;;;;;;;;;;16.77;45.64;101179.66;5057419;28;1086;-64
2023/09/08 00:19:43;;;;;;;;;;;;;;;16.75;45.74;101179.09;5056751;28;1121;-64
2023/09/08 00:22:08;;;;;;;;;;;;;;;17.34;47.08;101175.31;5057036;28;1976;-62
2023/09/08 00:24:34;;;;;;;;;;;;;;;16.97;47.08;101173.50;5056722;28;1020;-62
2023/09/08 00:27:00;;;;;;;;;;;;;;;16.86;46.72;101172.56;5070061;28;1000;-62
2023/09/08 00:29:25;;;;;;;;;;;;;;;16.88;46.42;101183.28;5070344;28;1091;-62
2023/09/08 00:31:51;;;;;;;;;;;;;;;16.82;45.96;101181.63;5051546;28;1392;-62
2023/09/08 00:34:16;;;;;;;;;;;;;;;16.82;45.97;101178.88;5070813;28;983;-62
2023/09/08 00:36:42;;;;;;;;;;;;;;;16.79;45.68;101177.47;5056745;28;1106;-63
2023/09/08 00:39:07;;;;;;;;;;;;;;;16.75;45.56;101179.91;5075601;28;1160;-62
2023/09/08 00:41:33;;;;;;;;;;;;;;;16.82;45.35;101170.63;5064308;28;1126;-62
2023/09/08 00:43:58;;;;;;;;;;;;;;;17.25;46.00;101171.41;5061851;28;1975;-62
2023/09/08 00:46:27;;;;;;;;;;;;;;;17.19;46.98;101180.75;5058154;28;1043;-62
2023/09/08 00:48:53;;;;;;;;;;;;;;;16.97;46.64;101176.25;5058305;28;1079;-62
2023/09/08 00:51:18;;;;;;;;;;;;;;;16.95;46.24;101175.66;5076473;28;1129;-62
2023/09/08 00:53:44;;;;;;;;;;;;;;;16.86;45.84;101180.00;5045302;28;1147;-62
2023/09/08 00:56:10;;;;;;;;;;;;;;;16.92;45.66;101187.19;5063051;28;1038;-62
2023/09/08 00:58:35;;;;;;;;;;;;;;;16.82;45.42;101178.88;5044211;28;1640;-62
2023/09/08 01:01:01;;;;;;;;;;;;;;;16.78;45.40;101178.56;5058541;28;1075;-62
2023/09/08 01:03:26;;;;;;;;;;;;;;;16.81;45.39;101179.97;5069898;28;1975;-61
2023/09/08 01:05:52;;;;;;;;;;;;;;;17.58;46.72;101188.59;5056213;28;1091;-62
2023/09/08 01:08:18;;;;;;;;;;;;;;;17.12;47.18;101183.72;5038500;28;1135;-66
2023/09/08 01:10:43;;;;;;;;;;;;;;;16.98;46.79;101179.81;5051488;28;1127;-66
2023/09/08 01:13:09;;;;;;;;;;;;;;;16.98;46.16;101177.88;5057669;28;1074;-64
2023/09/08 01:15:34;;;;;;;;;;;;;;;16.87;46.01;101179.72;5076268;28;1002;-64
2023/09/08 01:18:00;;;;;;;;;;;;;;;16.86;45.82;101169.00;5062521;28;1186;-63
2023/09/08 01:20:27;;;;;;;;;;;;;;;16.86;45.73;101180.00;5075601;28;1102;-64
2023/09/08 01:22:52;;;;;;;;;;;;;;;16.78;45.66;101175.81;5057973;28;1905;-63
2023/09/08 01:25:19;;;;;;;;;;;;;;;17.64;46.54;101160.00;5063775;28;1071;-62
2023/09/08 01:27:54;;;;;;;;;;;;;;;17.09;47.07;101168.59;5061768;28;1044;-63
2023/09/08 01:30:21;;;;;;;;;;;;;;;17.01;46.78;101168.28;5062238;28;1148;-63
2023/09/08 01:32:46;;;;;;;;;;;;;;;16.87;46.44;101173.38;5075340;28;885;-64
2023/09/08 01:35:12;;;;;;;;;;;;;;;16.88;46.01;101172.31;5044589;28;1007;-63
2023/09/08 01:37:42;;;;;;;;;;;;;;;16.98;46.22;101177.88;5057722;28;1031;-63
2023/09/08 01:40:09;;;;;;;;;;;;;;;17.33;47.33;101176.38;5062569;28;1139;-63
2023/09/08 01:42:35;;;;;;;;;;;;;;;17.14;46.96;101169.72;5075625;28;1955;-63
2023/09/08 01:45:00;;;;;;;;;;;;;;;16.98;46.64;101171.56;5074532;28;1117;-63
2023/09/08 01:47:27;;;;;;;;;;;;;;;16.99;46.27;101165.81;5045718;28;1051;-63
2023/09/08 01:49:53;;;;;;;;;;;;;;;16.91;46.04;101163.56;5043508;28;1042;-63
2023/09/08 01:52:18;;;;;;;;;;;;;;;16.85;45.62;101167.34;5045218;28;1174;-62
2023/09/08 01:54:44;;;;;;;;;;;;;;;16.84;45.55;101166.50;5062444;28;1062;-63
2023/09/08 01:57:09;;;;;;;;;;;;;;;17.62;46.78;101170.44;5067408;28;1079;-63
2023/09/08 01:59:36;;;;;;;;;;;;;;;17.12;47.20;101163.66;5051741;28;1095;-63
2023/09/08 02:02:03;;;;;;;;;;;;;;;17.04;46.56;101163.09;5050098;28;1910;-61
2023/09/08 02:04:29;;;;;;;;;;;;;;;16.97;46.36;101170.75;5055709;28;1024;-61
2023/09/08 02:06:54;;;;;;;;;;;;;;;16.96;46.08;101168.25;5063264;28;1011;-65
2023/09/08 02:09:20;;;;;;;;;;;;;;;16.86;46.04;101160.78;5076042;28;1154;-65
2023/09/08 02:11:45;;;;;;;;;;;;;;;16.84;45.75;101160.19;5071930;28;1071;-65
2023/09/08 02:14:11;;;;;;;;;;;;;;;16.85;45.56;101161.84;5047689;28;1115;-65
2023/09/08 02:16:36;;;;;;;;;;;;;;;16.82;45.27;101162.41;5072304;28;1110;-65
2023/09/08 02:19:02;;;;;;;;;;;;;;;16.76;45.46;101164.28;5072565;28;1119;-64
2023/09/08 02:21:27;;;;;;;;;;;;;;;16.75;45.28;101168.13;5071738;28;940;-65
2023/09/08 02:23:53;;;;;;;;;;;;;;;16.81;45.16;101149.75;5059651;28;1897;-66
2023/09/08 02:26:18;;;;;;;;;;;;;;;17.32;46.83;101163.75;5061059;28;1245;-65
2023/09/08 02:28:44;;;;;;;;;;;;;;;17.04;46.95;101154.84;5064972;28;1047;-65
2023/09/08 02:31:10;;;;;;;;;;;;;;;16.94;46.32;101149.28;5041400;28;1503;-66
2023/09/08 02:33:36;;;;;;;;;;;;;;;16.91;46.04;101147.06;5069235;28;1056;-65
2023/09/08 02:36:03;;;;;;;;;;;;;;;16.80;45.78;101150.84;5054272;28;1118;-64
2023/09/08 02:38:29;;;;;;;;;;;;;;;16.81;45.66;101147.00;5058839;28;1060;-65
2023/09/08 02:40:54;;;;;;;;;;;;;;;16.93;45.34;101158.63;5071671;28;962;-65
2023/09/08 02:43:20;;;;;;;;;;;;;;;16.72;45.35;101141.19;5041179;28;1972;-65
2023/09/08 02:45:46;;;;;;;;;;;;;;;16.80;45.42;101137.91;5047342;28;1246;-65
2023/09/08 02:48:12;;;;;;;;;;;;;;;17.22;47.00;101133.47;5065342;28;1122;-64
2023/09/08 02:50:37;;;;;;;;;;;;;;;17.01;46.80;101144.41;5065535;28;1127;-64
2023/09/08 02:53:03;;;;;;;;;;;;;;;16.98;46.49;101142.16;5046897;28;1062;-63
2023/09/08 02:55:29;;;;;;;;;;;;;;;16.94;46.08;101132.81;5065710;28;1186;-64
2023/09/08 02:57:56;;;;;;;;;;;;;;;16.90;45.51;101137.19;5078017;28;1071;-64
2023/09/08 03:00:22;;;;;;;;;;;;;;;16.86;45.63;101131.38;5078180;28;1018;-63
2023/09/08 03:02:48;;;;;;;;;;;;;;;16.79;45.50;101136.28;5046768;28;1971;-63
2023/09/08 03:05:13;;;;;;;;;;;;;;;16.74;45.39;101133.50;5078104;28;1205;-63
2023/09/08 03:07:39;;;;;;;;;;;;;;;16.79;45.16;101135.44;5060489;28;1276;-64
2023/09/08 03:10:05;;;;;;;;;;;;;;;16.75;45.27;101132.41;5052881;28;1023;-63
2023/09/08 03:12:30;;;;;;;;;;;;;;;16.69;45.13;101131.56;5058534;28;1031;-64
2023/09/08 03:14:56;;;;;;;;;;;;;;;16.72;45.01;101135.69;5077960;28;1039;-61
2023/09/08 03:17:22;;;;;;;;;;;;;;;17.03;45.62;101133.97;5059842;28;1149;-57
2023/09/08 03:19:47;;;;;;;;;;;;;;;17.10;47.02;101134.53;5077447;28;1110;-58
2023/09/08 03:22:13;;;;;;;;;;;;;;;17.00;46.79;101123.50;5063961;28;1964;-59
2023/09/08 03:24:38;;;;;;;;;;;;;;;16.83;46.26;101131.06;5055936;28;1428;-58
2023/09/08 03:27:04;;;;;;;;;;;;;;;16.79;46.08;101132.69;5069010;28;1138;-59
2023/09/08 03:29:29;;;;;;;;;;;;;;;16.77;45.48;101128.31;5071200;28;1054;-59
2023/09/08 03:31:54;;;;;;;;;;;;;;;16.77;45.39;101133.81;5049104;28;1127;-58
2023/09/08 03:34:20;;;;;;;;;;;;;;;16.82;45.49;101145.91;5050766;28;1245;-57
2023/09/08 03:36:46;;;;;;;;;;;;;;;17.27;46.66;101136.25;5053036;28;1430;-58
2023/09/08 03:39:12;;;;;;;;;;;;;;;16.98;46.67;101133.09;5078096;28;1035;-58
2023/09/08 03:41:38;;;;;;;;;;;;;;;16.87;46.32;101144.03;5065192;28;1027;-59
2023/09/08 03:44:04;;;;;;;;;;;;;;;16.85;46.10;101129.72;5059263;28;1993;-59
2023/09/08 03:46:29;;;;;;;;;;;;;;;16.83;45.70;101137.41;5059273;28;899;-59
2023/09/08 03:49:00;;;;;;;;;;;;;;;16.85;45.55;101131.66;5053378;28;1451;-58
2023/09/08 03:51:26;;;;;;;;;;;;;;;16.79;45.60;101118.97;5052080;28;1377;-58
2023/09/08 03:53:51;;;;;;;;;;;;;;;16.80;45.17;101132.44;5059800;28;1159;-59
2023/09/08 03:56:17;;;;;;;;;;;;;;;16.74;45.05;101133.50;5064321;28;1220;-57
2023/09/08 03:58:42;;;;;;;;;;;;;;;17.47;46.22;101145.66;5062670;28;949;-56
2023/09/08 04:01:08;;;;;;;;;;;;;;;17.09;46.58;101146.59;5062918;28;992;-57
2023/09/08 04:03:34;;;;;;;;;;;;;;;16.91;46.44;101150.66;5065029;28;1914;-56
2023/09/08 04:05:59;;;;;;;;;;;;;;;16.88;46.02;101144.84;5064010;28;1059;-60
2023/09/08 04:08:25;;;;;;;;;;;;;;;16.79;46.03;101152.75;5071320;28;1137;-57
2023/09/08 04:10:50;;;;;;;;;;;;;;;16.77;46.07;101163.16;5039335;28;1071;-57
2023/09/08 04:13:16;;;;;;;;;;;;;;;16.79;45.56;101152.75;5047343;28;1409;-56
2023/09/08 04:15:41;;;;;;;;;;;;;;;16.72;45.53;101157.66;5059147;28;1080;-56
2023/09/08 04:18:07;;;;;;;;;;;;;;;16.72;45.47;101147.50;5076602;28;1148;-57
2023/09/08 04:20:33;;;;;;;;;;;;;;;16.84;45.47;101165.69;5062011;28;1118;-61
2023/09/08 04:22:58;;;;;;;;;;;;;;;17.44;47.47;101172.56;5048905;28;1979;-60
2023/09/08 04:25:24;;;;;;;;;;;;;;;17.04;47.35;101168.59;5039896;28;1567;-57
2023/09/08 04:27:50;;;;;;;;;;;;;;;16.96;46.78;101160.84;5067999;28;1047;-59
2023/09/08 04:30:17;;;;;;;;;;;;;;;16.98;46.32;101166.06;5057963;28;975;-59
2023/09/08 04:32:43;;;;;;;;;;;;;;;17.54;47.60;101179.22;5057575;28;1115;-57
2023/09/08 04:35:09;;;;;;;;;;;;;;;17.18;47.69;101177.19;5060106;28;863;-58
2023/09/08 04:37:36;;;;;;;;;;;;;;;17.00;47.28;101169.38;5063333;28;1143;-57
2023/09/08 04:40:03;;;;;;;;;;;;;;;17.02;46.38;101168.00;5044658;28;1187;-58
2023/09/08 04:42:29;;;;;;;;;;;;;;;17.97;45.76;101177.16;5051405;28;2684;-58
2023/09/08 04:44:55;;;;;;;;;;;;;;;17.95;46.13;101174.69;5051756;28;1227;-60
2023/09/08 04:47:21;;;;;;;;;;;;;;;17.75;47.18;101185.59;5055287;28;1387;-60
2023/09/08 04:49:46;;;;;;;;;;;;;;;17.56;47.65;101185.28;5044268;28;1228;-60
2023/09/08 04:52:12;;;;;;;;;;;;;;;17.47;48.44;101175.91;5038260;28;1235;-59
2023/09/08 04:54:39;;;;;;;;;;;;;;;17.38;48.85;101181.91;5038385;28;1322;-59
2023/09/08 04:57:05;;;;;;;;;;;;;;;17.30;49.34;101184.38;5038038;28;1665;-59
2023/09/08 04:59:31;;;;;;;;;;;;;;;17.25;49.68;101182.41;5055400;28;1109;-60
2023/09/08 05:01:57;;;;;;;;;;;;;;;17.23;50.00;101171.69;5058318;28;1909;-59
2023/09/08 05:04:23;;;;;;;;;;;;;;;17.16;50.49;101181.28;5061050;28;1020;-59
2023/09/08 05:06:48;;;;;;;;;;;;;;;17.09;50.75;101185.06;5063288;28;1001;-59
2023/09/08 05:09:16;;;;;;;;;;;;;;;17.04;51.02;101187.81;5056774;28;1154;-60
2023/09/08 05:11:42;;;;;;;;;;;;;;;16.94;51.36;101187.75;5055731;28;2282;-59
2023/09/08 05:14:08;;;;;;;;;;;;;;;16.92;51.46;101173.47;5061270;28;1177;-59
2023/09/08 05:16:39;;;;;;;;;;;;;;;16.90;51.83;101183.88;5045530;28;1224;-60
2023/09/08 05:19:07;;;;;;;;;;;;;;;16.86;52.02;101180.00;5055683;28;1177;-61
2023/09/08 05:21:33;;;;;;;;;;;;;;;16.88;52.04;101173.16;5038084;28;1296;-59
2023/09/08 05:23:59;;;;;;;;;;;;;;;16.88;52.32;101177.81;5057254;28;1913;-59
2023/09/08 05:26:25;;;;;;;;;;;;;;;16.82;52.49;101176.13;5057740;28;1449;-58
2023/09/08 05:28:51;;;;;;;;;;;;;;;16.72;52.89;101174.97;5044633;28;1317;-58
2023/09/08 05:31:17;;;;;;;;;;;;;;;16.80;52.66;101170.88;5058107;28;1170;-59
2023/09/08 05:33:42;;;;;;;;;;;;;;;16.74;52.75;101172.75;5043115;28;2175;-59
2023/09/08 05:36:08;;;;;;;;;;;;;;;16.67;53.27;101182.34;5057448;28;1254;-59
2023/09/08 05:38:34;;;;;;;;;;;;;;;16.64;53.26;101178.19;5060820;28;1094;-59
2023/09/08 05:40:59;;;;;;;;;;;;;;;16.67;53.25;101182.34;5055213;28;1154;-59
2023/09/08 05:43:25;;;;;;;;;;;;;;;16.59;53.13;101187.25;5037811;28;2533;-59
2023/09/08 05:45:51;;;;;;;;;;;;;;;16.63;53.37;101187.53;5049404;28;1146;-59
2023/09/08 05:48:18;;;;;;;;;;;;;;;16.62;53.17;101188.63;5060058;28;1259;-60
2023/09/08 05:50:44;;;;;;;;;;;;;;;16.60;53.39;101188.06;5049601;28;1204;-59
2023/09/08 05:53:11;;;;;;;;;;;;;;;16.58;53.26;101191.06;5046392;28;1330;-59
2023/09/08 05:55:36;;;;;;;;;;;;;;;16.57;53.48;101188.59;5041360;28;1247;-60
2023/09/08 05:58:02;;;;;;;;;;;;;;;16.55;53.49;101185.25;5072774;28;1031;-59
2023/09/08 06:00:28;;;;;;;;;;;;;;;16.50;53.66;101193.47;5041568;28;1114;-58
2023/09/08 06:02:54;;;;;;;;;;;;;;;16.48;53.89;101195.66;5041494;28;1910;-58
2023/09/08 06:05:20;;;;;;;;;;;;;;;16.49;53.90;101197.31;5041284;28;1171;-59
2023/09/08 06:07:45;;;;;;;;;;;;;;;16.56;53.77;101206.13;5059719;28;1182;-57
2023/09/08 06:10:11;;;;;;;;;;;;;;;16.47;53.93;101200.31;5076839;28;1003;-58
2023/09/08 06:12:37;;;;;;;;;;;;;;;16.46;53.94;101211.56;5047982;28;2494;-58
2023/09/08 06:15:03;;;;;;;;;;;;;;;16.46;54.12;101203.31;5041170;28;1175;-59
2023/09/08 06:17:30;;;;;;;;;;;;;;;16.42;54.20;101203.84;5042988;28;1118;-60
2023/09/08 06:19:55;;;;;;;;;;;;;;;16.46;53.86;101208.81;5052691;28;1150;-60
2023/09/08 06:22:21;;;;;;;;;;;;;;;16.42;54.25;101214.84;5073014;28;1972;-60
2023/09/08 06:24:47;;;;;;;;;;;;;;;16.37;54.29;101209.28;5052627;28;1330;-59
2023/09/08 06:27:14;;;;;;;;;;;;;;;16.33;54.38;101212.84;5054182;28;1448;-60
2023/09/08 06:29:43;;;;;;;;;;;;;;;16.39;54.11;101218.06;5041164;28;1135;-61
2023/09/08 06:32:10;;;;;;;;;;;;;;;16.41;54.30;101213.16;5043216;28;1303;-60
2023/09/08 06:34:35;;;;;;;;;;;;;;;16.35;54.27;101221.63;5073312;28;1198;-60
2023/09/08 06:37:02;;;;;;;;;;;;;;;16.33;54.52;101219.13;5059816;28;1138;-61
2023/09/08 06:39:28;;;;;;;;;;;;;;;16.36;54.35;101218.59;5060910;28;1162;-60
2023/09/08 06:41:54;;;;;;;;;;;;;;;16.65;54.67;101217.44;5057513;28;2293;-60
2023/09/08 06:44:20;;;;;;;;;;;;;;;17.56;54.22;101224.59;5040376;28;1194;-62
2023/09/08 06:46:46;;;;;;;;;;;;;;;17.08;55.04;101223.81;5062551;28;1070;-60
2023/09/08 06:49:12;;;;;;;;;;;;;;;16.87;55.34;101217.34;5051508;28;1339;-61
2023/09/08 06:51:38;;;;;;;;;;;;;;;16.72;55.44;101210.66;5045016;28;1420;-60
2023/09/08 06:54:04;;;;;;;;;;;;;;;16.72;55.26;101213.41;5043339;28;1061;-60
2023/09/08 06:56:37;;;;;;;;;;;;;;;16.71;55.16;101217.25;5044917;28;1157;-61
2023/09/08 06:59:04;;;;;;;;;;;;;;;16.64;55.15;101216.63;5049491;28;1123;-61
2023/09/08 07:01:29;;;;;;;;;;;;;;;16.67;55.02;101218.03;5057222;28;1229;-60
2023/09/08 07:03:55;;;;;;;;;;;;;;;16.67;54.67;101218.84;5065041;28;1913;-59
2023/09/08 07:06:22;;;;;;;;;;;;;;;16.64;54.68;101232.28;5042563;28;2109;-60
2023/09/08 07:08:51;;;;;;;;;;;;;;;16.54;54.80;101238.53;5059716;28;1123;-58
2023/09/08 07:11:18;;;;;;;;;;;;;;;16.55;54.56;101234.69;5069797;28;1231;-62
2023/09/08 07:13:45;;;;;;;;;;;;;;;16.56;54.88;101236.34;5057465;28;2548;-59
2023/09/08 07:16:11;;;;;;;;;;;;;;;16.47;54.68;101233.25;5055928;28;1868;-63
2023/09/08 07:18:38;;;;;;;;;;;;;;;16.45;54.67;101235.41;5049557;28;1345;-59
2023/09/08 07:21:06;;;;;;;;;;;;;;;16.52;54.36;101233.31;5042135;28;1057;-57
2023/09/08 07:23:32;;;;;;;;;;;;;;;16.49;54.55;101231.06;5049540;28;1906;-57
2023/09/08 07:25:57;;;;;;;;;;;;;;;16.48;54.47;101234.91;5046156;28;1350;-57
2023/09/08 07:28:26;;;;;;;;;;;;;;;16.41;54.74;101240.63;5048497;28;1318;-58
2023/09/08 07:30:53;;;;;;;;;;;;;;;16.42;54.63;101242.28;5044113;28;1246;-60
2023/09/08 07:33:22;;;;;;;;;;;;;;;16.42;54.48;101247.78;5047827;28;1132;-62
2023/09/08 07:35:48;;;;;;;;;;;;;;;16.43;54.51;101237.63;5048669;28;1188;-60
2023/09/08 07:38:13;;;;;;;;;;;;;;;17.50;55.29;101241.34;5047397;28;1313;-61
2023/09/08 07:40:39;;;;;;;;;;;;;;;17.05;55.82;101246.34;5052160;28;1055;-63
2023/09/08 07:43:05;;;;;;;;;;;;;;;16.86;55.82;101244.00;5069521;28;2622;-62
2023/09/08 07:45:31;;;;;;;;;;;;;;;16.77;55.60;101248.31;5058741;28;1221;-63
2023/09/08 07:47:56;;;;;;;;;;;;;;;16.68;55.29;101258.97;5067288;28;1008;-62
2023/09/08 07:50:23;;;;;;;;;;;;;;;16.67;55.28;101260.03;5076814;28;1015;-63
2023/09/08 07:52:49;;;;;;;;;;;;;;;16.62;54.98;101261.91;5065080;28;1058;-64
2023/09/08 07:55:14;;;;;;;;;;;;;;;16.64;55.01;101263.31;5070312;28;1086;-65
2023/09/08 07:57:43;;;;;;;;;;;;;;;16.53;54.94;101256.09;5068053;28;1048;-64
2023/09/08 08:00:12;;;;;;;;;;;;;;;16.57;54.69;101255.28;5068984;28;1139;-64
2023/09/08 08:02:47;;;;;;;;;;;;;;;16.41;54.88;101257.09;5065004;28;1967;-64
2023/09/08 08:05:12;;;;;;;;;;;;;;;16.43;54.74;101249.41;5063134;28;1063;-64
2023/09/08 08:07:38;;;;;;;;;;;;;;;16.50;54.43;101259.38;5063158;28;1012;-66
2023/09/08 08:10:05;;;;;;;;;;;;;;;16.44;54.52;101261.22;5075714;28;1175;-64
2023/09/08 08:12:30;;;;;;;;;;;;;;;16.38;54.68;101260.38;5075577;28;1945;-64
2023/09/08 08:14:56;;;;;;;;;;;;;;;16.34;54.77;101269.34;5057063;28;1146;-64
2023/09/08 08:17:21;;;;;;;;;;;;;;;16.36;54.46;101270.75;5056469;28;1119;-62
2023/09/08 08:19:47;;;;;;;;;;;;;;;16.30;54.52;101279.19;5062624;28;1063;-64
2023/09/08 08:22:12;;;;;;;;;;;;;;;16.80;55.34;101286.22;5063301;28;1977;-63
2023/09/08 08:24:38;;;;;;;;;;;;;;;17.67;55.43;101276.88;5070038;28;1122;-62
2023/09/08 08:27:03;;;;;;;;;;;;;;;17.10;56.03;101274.66;5063459;28;1190;-62
2023/09/08 08:29:29;;;;;;;;;;;;;;;16.86;56.01;101270.63;5061530;28;1463;-62
2023/09/08 08:31:55;;;;;;;;;;;;;;;16.74;55.63;101271.63;5063527;28;1019;-62
2023/09/08 08:34:20;;;;;;;;;;;;;;;16.73;55.36;101272.75;5069715;28;1142;-64
2023/09/08 08:36:46;;;;;;;;;;;;;;;16.68;55.00;101271.88;5070068;28;836;-59
2023/09/08 08:39:11;;;;;;;;;;;;;;;16.62;54.66;101286.63;5062656;28;1162;-59
2023/09/08 08:41:39;;;;;;;;;;;;;;;16.53;54.99;101276.13;5075822;28;2429;-59
2023/09/08 08:44:08;;;;;;;;;;;;;;;16.50;54.69;101276.66;5055645;28;1913;-61
2023/09/08 08:46:33;;;;;;;;;;;;;;;16.44;54.56;101266.72;5056346;28;1009;-60
2023/09/08 08:49:00;;;;;;;;;;;;;;;16.45;54.47;101275.78;5075289;28;862;-61
2023/09/08 08:51:25;;;;;;;;;;;;;;;16.47;54.12;101271.69;5043696;28;1218;-58
2023/09/08 08:53:51;;;;;;;;;;;;;;;16.43;54.02;101271.38;5038501;28;1043;-63
2023/09/08 08:56:18;;;;;;;;;;;;;;;16.35;54.14;101282.00;5069171;28;1024;-60
2023/09/08 08:58:43;;;;;;;;;;;;;;;16.34;54.35;101275.69;5075760;28;1117;-58
2023/09/08 09:01:10;;;;;;;;;;;;;;;16.76;55.20;101272.22;5056607;28;1433;-58
2023/09/08 09:03:37;;;;;;;;;;;;;;;17.45;55.39;101281.47;5049905;28;1955;-60
2023/09/08 09:06:03;;;;;;;;;;;;;;;17.01;55.74;101265.28;5051437;28;1032;-62
2023/09/08 09:08:29;;;;;;;;;;;;;;;16.84;55.32;101262.63;5063015;28;1126;-62
2023/09/08 09:10:54;;;;;;;;;;;;;;;16.69;55.23;101279.84;5057089;28;1198;-61
2023/09/08 09:13:20;;;;;;;;;;;;;;;16.64;55.25;101271.56;5071280;28;2407;-60
2023/09/08 09:15:46;;;;;;;;;;;;;;;16.61;54.73;101266.59;5063623;28;1466;-61
2023/09/08 09:18:12;;;;;;;;;;;;;;;16.51;54.92;101267.34;5067181;28;1035;-62
2023/09/08 09:20:38;;;;;;;;;;;;;;;16.50;54.67;101270.34;5055833;28;1575;-62
2023/09/08 09:23:03;;;;;;;;;;;;;;;16.48;54.48;101273.34;5055321;28;1905;-60
2023/09/08 09:25:29;;;;;;;;;;;;;;;16.49;54.32;101263.19;5068328;28;1361;-62
2023/09/08 09:27:58;;;;;;;;;;;;;;;16.42;54.38;101269.72;5062959;28;1013;-60
2023/09/08 09:30:24;;;;;;;;;;;;;;;16.37;54.50;101269.69;5060720;28;1467;-61
2023/09/08 09:33:00;;;;;;;;;;;;;;;16.36;54.46;101273.50;5067550;28;1162;-61
2023/09/08 09:35:41;;;;;;;;;;;;;;;16.35;54.07;101263.59;5056625;28;1434;-61
2023/09/08 09:38:07;;;;;;;;;;;;;;;16.35;54.19;101263.59;5075496;28;1221;-64
2023/09/08 09:40:32;;;;;;;;;;;;;;;16.31;54.18;101256.97;5057616;28;1114;-59
2023/09/08 09:42:58;;;;;;;;;;;;;;;17.00;55.07;101258.13;5066646;28;2538;-59
2023/09/08 09:45:26;;;;;;;;;;;;;;;17.24;55.36;101246.72;5057062;28;1012;-58
2023/09/08 09:47:52;;;;;;;;;;;;;;;16.88;55.38;101243.72;5066836;28;1162;-59
2023/09/08 09:50:31;;;;;;;;;;;;;;;16.79;55.04;101242.53;5052398;28;1154;-61
2023/09/08 09:53:15;;;;;;;;;;;;;;;16.62;55.42;101239.94;5068583;28;1130;-61
2023/09/08 09:55:41;;;;;;;;;;;;;;;16.62;54.93;101231.72;5055417;28;1287;-61
2023/09/08 09:58:06;;;;;;;;;;;;;;;16.60;54.53;101242.97;5057514;28;1067;-62
2023/09/08 10:00:33;;;;;;;;;;;;;;;16.55;54.58;101240.16;5072385;28;1154;-61
2023/09/08 10:02:58;;;;;;;;;;;;;;;16.51;54.52;101244.53;5072382;28;1921;-62
2023/09/08 10:05:24;;;;;;;;;;;;;;;16.49;54.84;101242.03;5064126;28;1047;-61
2023/09/08 10:07:50;;;;;;;;;;;;;;;16.48;54.73;101242.31;5060241;28;1130;-62
2023/09/08 10:10:16;;;;;;;;;;;;;;;16.46;54.62;101233.53;5074725;28;983;-61
2023/09/08 10:12:43;;;;;;;;;;;;;;;16.46;54.73;101230.78;5063241;28;1995;-62
2023/09/08 10:15:08;;;;;;;;;;;;;;;16.45;54.69;101237.34;5065946;28;1046;-62
2023/09/08 10:17:34;;;;;;;;;;;;;;;16.41;54.66;101224.16;5039743;28;1357;-63
2023/09/08 10:20:00;;;;;;;;;;;;;;;16.42;54.77;101220.31;5047941;28;1091;-61
2023/09/08 10:22:28;;;;;;;;;;;;;;;16.36;54.85;101226.03;5068731;28;1913;-60
2023/09/08 10:24:54;;;;;;;;;;;;;;;17.25;55.50;101220.88;5056739;28;875;-61
2023/09/08 10:27:21;;;;;;;;;;;;;;;17.38;55.43;101209.41;5043810;28;1230;-61
2023/09/08 10:29:47;;;;;;;;;;;;;;;17.05;56.09;101216.13;5057448;28;1024;-60
2023/09/08 10:32:12;;;;;;;;;;;;;;;16.94;56.01;101215.22;5059829;28;1125;-61
2023/09/08 10:34:38;;;;;;;;;;;;;;;16.86;55.97;101218.44;5060782;28;1131;-60
2023/09/08 10:37:17;;;;;;;;;;;;;;;16.77;55.94;101223.59;5077786;28;1027;-61
2023/09/08 10:39:42;;;;;;;;;;;;;;;16.72;56.09;101218.09;5068966;28;889;-61
2023/09/08 10:42:17;;;;;;;;;;;;;;;16.80;55.74;101216.75;5071974;28;2279;-60
2023/09/08 10:44:51;;;;;;;;;;;;;;;16.69;56.11;101205.69;5077995;28;1276;-60
2023/09/08 10:47:22;;;;;;;;;;;;;;;16.74;55.78;101222.19;5061460;28;1091;-62
2023/09/08 10:49:47;;;;;;;;;;;;;;;16.67;55.75;101221.59;5072029;28;903;-60
2023/09/08 10:52:14;;;;;;;;;;;;;;;16.72;55.56;101218.09;5060658;28;1015;-60
2023/09/08 10:54:49;;;;;;;;;;;;;;;16.66;55.71;101219.97;5060592;28;900;-61
2023/09/08 10:57:15;;;;;;;;;;;;;;;16.68;55.55;101216.94;5062278;28;1165;-60
2023/09/08 10:59:44;;;;;;;;;;;;;;;16.67;55.52;101221.59;5066749;28;1105;-63
2023/09/08 11:02:30;;;;;;;;;;;;;;;16.62;55.70;101216.09;5076299;28;1902;-61
2023/09/08 11:04:55;;;;;;;;;;;;;;;16.63;55.38;101220.47;5075924;28;1653;-62
2023/09/08 11:07:21;;;;;;;;;;;;;;;16.59;55.45;101214.69;5047859;28;1133;-62
2023/09/08 11:09:46;;;;;;;;;;;;;;;16.58;55.37;101217.69;5075380;28;1470;-61
2023/09/08 11:12:12;;;;;;;;;;;;;;;16.56;55.70;101219.88;5062219;28;1795;-61
2023/09/08 11:14:37;;;;;;;;;;;;;;;16.62;55.16;101207.00;5059203;28;934;-58
2023/09/08 11:17:03;;;;;;;;;;;;;;;16.56;55.38;101204.25;5069352;28;969;-57
2023/09/08 11:19:47;;;;;;;;;;;;;;;16.58;55.05;101212.22;5071964;28;1073;-58
2023/09/08 11:22:16;;;;;;;;;;;;;;;16.57;55.18;101202.31;5067471;28;1978;-57
2023/09/08 11:24:42;;;;;;;;;;;;;;;16.50;55.31;101207.22;5073181;28;1076;-58
2023/09/08 11:27:07;;;;;;;;;;;;;;;16.53;55.15;101209.41;5076711;28;1523;-62
2023/09/08 11:29:33;;;;;;;;;;;;;;;16.55;55.18;101221.78;5073374;28;1082;-62
2023/09/08 11:31:58;;;;;;;;;;;;;;;16.49;55.41;101222.00;5056984;28;1046;-57
2023/09/08 11:34:24;;;;;;;;;;;;;;;16.53;55.00;101214.91;5057694;28;1083;-60
2023/09/08 11:36:51;;;;;;;;;;;;;;;16.49;55.31;101214.59;5071065;28;1000;-61
2023/09/08 11:39:17;;;;;;;;;;;;;;;16.49;55.48;101213.78;5057446;28;995;-61
2023/09/08 11:41:42;;;;;;;;;;;;;;;16.48;55.13;101212.13;5057330;28;2301;-62
2023/09/08 11:44:08;;;;;;;;;;;;;;;16.47;55.16;101203.06;5057394;28;1914;-57
2023/09/08 11:46:33;;;;;;;;;;;;;;;16.42;55.24;101195.63;5070366;28;1078;-58
2023/09/08 11:48:59;;;;;;;;;;;;;;;16.44;55.22;101198.09;5073356;28;973;-57
2023/09/08 11:51:25;;;;;;;;;;;;;;;16.46;55.25;101208.81;5045574;28;1111;-57
2023/09/08 11:53:51;;;;;;;;;;;;;;;16.45;55.08;101207.16;5070101;28;1111;-57
2023/09/08 11:56:16;;;;;;;;;;;;;;;16.41;55.25;101202.19;5056994;28;1083;-58
2023/09/08 11:58:42;;;;;;;;;;;;;;;16.45;55.37;101196.19;5056377;28;1067;-57
2023/09/08 12:01:08;;;;;;;;;;;;;;;16.44;55.14;101195.34;5053149;28;1455;-57
2023/09/08 12:03:33;;;;;;;;;;;;;;;16.42;55.18;101211.25;5076861;28;1905;-57
2023/09/08 12:06:00;;;;;;;;;;;;;;;16.43;55.15;101205.50;5063518;28;1074;-58
2023/09/08 12:08:26;;;;;;;;;;;;;;;16.45;55.32;101198.91;5063031;28;1103;-61
2023/09/08 12:10:53;;;;;;;;;;;;;;;16.40;55.11;101200.53;5076117;28;1143;-59
2023/09/08 12:13:22;;;;;;;;;;;;;;;16.37;55.36;101184.59;5069291;28;1812;-59
2023/09/08 12:15:47;;;;;;;;;;;;;;;16.40;55.52;101195.03;5064505;28;1036;-61
2023/09/08 12:18:15;;;;;;;;;;;;;;;16.43;55.29;101186.28;5061490;28;1213;-61
2023/09/08 12:20:40;;;;;;;;;;;;;;;16.41;55.51;101190.38;5064650;28;1099;-61
2023/09/08 12:23:15;;;;;;;;;;;;;;;17.46;56.18;101188.84;5063264;28;1945;-62
2023/09/08 12:25:59;;;;;;;;;;;;;;;17.07;56.79;101176.28;5069106;28;1139;-60
2023/09/08 12:28:25;;;;;;;;;;;;;;;16.89;56.56;101190.47;5069430;28;1051;-61
2023/09/08 12:30:50;;;;;;;;;;;;;;;16.83;56.68;101186.00;5050557;28;1152;-61
2023/09/08 12:33:16;;;;;;;;;;;;;;;16.77;56.52;101193.38;5070914;28;1019;-65
2023/09/08 12:35:45;;;;;;;;;;;;;;;16.75;56.18;101188.16;5073324;28;1158;-65
2023/09/08 12:38:10;;;;;;;;;;;;;;;16.73;55.83;101182.13;5074560;28;1559;-60
2023/09/08 12:40:36;;;;;;;;;;;;;;;16.67;55.73;101185.09;5071264;28;1190;-61
2023/09/08 12:43:02;;;;;;;;;;;;;;;16.63;55.73;101184.78;5056696;28;2120;-61